createdAt,value
2022-12-17T00:02:25.050Z,-2.10
2022-12-17T00:05:07.490Z,-2.20
2022-12-17T00:07:52.419Z,-2.20
2022-12-17T00:10:35.194Z,-2.10
2022-12-17T00:13:17.565Z,-2.10
2022-12-17T00:16:06.785Z,-2.10
2022-12-17T00:18:49.139Z,-2.10
2022-12-17T00:21:31.480Z,-2.10
2022-12-17T00:24:16.403Z,-2.10
2022-12-17T00:26:58.743Z,-2.10
2022-12-17T00:29:41.087Z,-2.00
2022-12-17T00:32:24.746Z,-2.00
2022-12-17T00:35:07.141Z,-2.00
2022-12-17T00:37:49.532Z,-2.00
2022-12-17T00:40:34.671Z,-2.00
2022-12-17T00:43:18.100Z,-2.00
2022-12-17T00:46:01.399Z,-2.00
2022-12-17T00:48:43.725Z,-2.00
2022-12-17T00:51:26.119Z,-2.00
2022-12-17T00:54:08.780Z,-1.90
2022-12-17T00:56:53.710Z,-1.90
2022-12-17T00:59:38.639Z,-1.90
2022-12-17T01:02:21.151Z,-1.90
2022-12-17T01:05:03.582Z,-1.90
2022-12-17T01:07:45.939Z,-1.90
2022-12-17T01:10:28.296Z,-1.90
2022-12-17T01:13:13.219Z,-1.90
2022-12-17T01:15:55.616Z,-1.90
2022-12-17T01:18:39.166Z,-1.90
2022-12-17T01:21:21.700Z,-1.90
2022-12-17T01:24:04.121Z,-1.90
2022-12-17T01:26:46.474Z,-1.90
2022-12-17T01:29:31.492Z,-1.90
2022-12-17T01:32:13.730Z,-1.80
2022-12-17T01:34:56.156Z,-1.80
2022-12-17T01:37:38.558Z,-1.80
2022-12-17T01:40:22.702Z,-1.80
2022-12-17T01:43:05.070Z,-1.80
2022-12-17T01:45:54.516Z,-1.80
2022-12-17T01:48:55.007Z,-1.80
2022-12-17T01:51:38.816Z,-1.80
2022-12-17T01:54:21.846Z,-1.80
2022-12-17T01:57:04.606Z,-1.80
2022-12-17T01:59:56.349Z,-1.80
2022-12-17T02:02:41.550Z,-1.80
2022-12-17T02:05:24.119Z,-1.80
2022-12-17T02:08:18.176Z,-1.80
2022-12-17T02:11:08.086Z,-1.80
2022-12-17T02:13:55.269Z,-1.70
2022-12-17T02:16:46.112Z,-1.70
2022-12-17T02:19:46.623Z,-1.80
2022-12-17T02:22:40.204Z,-1.80
2022-12-17T02:25:31.959Z,-1.70
2022-12-17T02:28:17.025Z,-1.80
2022-12-17T02:30:59.240Z,-1.70
2022-12-17T02:33:41.997Z,-1.70
2022-12-17T02:36:24.477Z,-1.80
2022-12-17T02:39:06.823Z,-1.80
2022-12-17T02:41:55.774Z,-1.80
2022-12-17T02:44:41.857Z,-1.80
2022-12-17T02:47:25.562Z,-1.80
2022-12-17T02:50:08.079Z,-1.80
2022-12-17T02:52:55.056Z,-1.80
2022-12-17T02:55:37.702Z,-1.70
2022-12-17T02:58:20.225Z,-1.70
2022-12-17T03:01:05.218Z,-1.80
2022-12-17T03:03:53.161Z,-1.80
2022-12-17T03:06:35.525Z,-1.80
2022-12-17T03:09:17.941Z,-1.80
2022-12-17T03:12:00.341Z,-1.80
2022-12-17T03:14:42.936Z,-1.80
2022-12-17T03:17:39.876Z,-1.80
2022-12-17T03:20:24.853Z,-1.80
2022-12-17T03:23:07.241Z,-1.80
2022-12-17T03:25:49.600Z,-1.80
2022-12-17T03:28:31.970Z,-1.90
2022-12-17T03:31:15.100Z,-1.90
2022-12-17T03:34:00.923Z,-1.90
2022-12-17T03:36:43.864Z,-1.90
2022-12-17T03:39:26.198Z,-1.90
2022-12-17T03:42:08.545Z,-1.90
2022-12-17T03:44:50.905Z,-1.90
2022-12-17T03:47:33.351Z,-1.90
2022-12-17T03:50:18.514Z,-1.90
2022-12-17T03:53:00.927Z,-1.90
2022-12-17T03:55:43.283Z,-1.90
2022-12-17T03:58:25.640Z,-1.90
2022-12-17T04:01:08.066Z,-1.90
2022-12-17T04:03:50.498Z,-2.00
2022-12-17T04:06:35.430Z,-2.00
2022-12-17T04:09:18.067Z,-2.00
2022-12-17T04:12:00.405Z,-2.00
2022-12-17T04:14:42.762Z,-2.00
2022-12-17T04:17:25.115Z,-2.00
2022-12-17T04:20:07.450Z,-2.00
2022-12-17T04:22:52.367Z,-2.00
2022-12-17T04:25:34.770Z,-2.00
2022-12-17T04:28:17.145Z,-2.00
2022-12-17T04:30:59.536Z,-2.00
2022-12-17T04:33:41.936Z,-2.00
2022-12-17T04:36:24.584Z,-2.00
2022-12-17T04:39:09.672Z,-2.10
2022-12-17T04:41:51.849Z,-2.10
2022-12-17T04:44:34.206Z,-2.20
2022-12-17T04:47:16.599Z,-2.30
2022-12-17T04:49:58.934Z,-2.30
2022-12-17T04:52:41.298Z,-2.30
2022-12-17T04:55:26.376Z,-2.30
2022-12-17T04:58:08.617Z,-2.30
2022-12-17T05:00:50.951Z,-2.30
2022-12-17T05:03:33.696Z,-2.40
2022-12-17T05:06:16.908Z,-2.40
2022-12-17T05:08:59.271Z,-2.30
2022-12-17T05:11:44.301Z,-2.30
2022-12-17T05:14:26.497Z,-2.30
2022-12-17T05:17:08.829Z,-2.40
2022-12-17T05:19:51.265Z,-2.30
2022-12-17T05:22:33.630Z,-2.40
2022-12-17T05:25:15.979Z,-2.40
2022-12-17T05:28:01.719Z,-2.30
2022-12-17T05:30:44.132Z,-2.40
2022-12-17T05:33:26.576Z,-2.40
2022-12-17T05:36:08.952Z,-2.40
2022-12-17T05:38:51.295Z,-2.30
2022-12-17T05:41:33.667Z,-2.30
2022-12-17T05:44:18.618Z,-2.30
2022-12-17T05:47:01.011Z,-2.40
2022-12-17T05:49:43.397Z,-2.40
2022-12-17T05:52:25.769Z,-2.50
2022-12-17T05:55:08.136Z,-2.50
2022-12-17T05:57:55.972Z,-2.50
2022-12-17T06:00:41.462Z,-2.50
2022-12-17T06:03:25.046Z,-2.50
2022-12-17T06:06:10.323Z,-2.40
2022-12-17T06:08:52.643Z,-2.50
2022-12-17T06:11:35.012Z,-2.50
2022-12-17T06:14:17.348Z,-2.60
2022-12-17T06:17:02.305Z,-2.60
2022-12-17T06:19:44.681Z,-2.60
2022-12-17T06:22:27.079Z,-2.60
2022-12-17T06:25:09.522Z,-2.60
2022-12-17T06:27:51.870Z,-2.60
2022-12-17T06:30:34.230Z,-2.50
2022-12-17T06:33:24.761Z,-2.60
2022-12-17T06:36:09.046Z,-2.50
2022-12-17T06:38:51.414Z,-2.60
2022-12-17T06:41:33.739Z,-2.60
2022-12-17T06:44:16.073Z,-2.60
2022-12-17T06:46:58.452Z,-2.70
2022-12-17T06:49:43.817Z,-2.70
2022-12-17T06:52:38.185Z,-2.70
2022-12-17T06:55:21.664Z,-2.70
2022-12-17T06:58:04.050Z,-2.70
2022-12-17T07:00:46.425Z,-2.60
2022-12-17T07:03:28.875Z,-2.60
2022-12-17T07:06:15.694Z,-2.60
2022-12-17T07:08:58.037Z,-2.60
2022-12-17T07:11:40.464Z,-2.60
2022-12-17T07:14:22.637Z,-2.60
2022-12-17T07:17:05.022Z,-2.60
2022-12-17T07:19:47.382Z,-2.60
2022-12-17T07:22:32.314Z,-2.60
2022-12-17T07:25:14.651Z,-2.60
2022-12-17T07:27:57.025Z,-2.60
2022-12-17T07:30:39.407Z,-2.60
2022-12-17T07:33:24.452Z,-2.70
2022-12-17T07:36:07.671Z,-2.70
2022-12-17T07:38:52.601Z,-2.60
2022-12-17T07:41:34.749Z,-2.60
2022-12-17T07:44:17.110Z,-2.60
2022-12-17T07:46:59.444Z,-2.70
2022-12-17T07:49:44.178Z,-2.70
2022-12-17T07:52:26.537Z,-2.70
2022-12-17T07:55:16.721Z,-2.70
2022-12-17T07:58:00.606Z,-2.70
2022-12-17T08:00:48.954Z,-2.70
2022-12-17T08:03:31.746Z,-2.70
2022-12-17T08:06:14.775Z,-2.70
2022-12-17T08:08:57.139Z,-2.70
2022-12-17T08:11:42.358Z,-2.80
2022-12-17T08:14:24.716Z,-2.70
2022-12-17T08:17:07.112Z,-2.70
2022-12-17T08:19:49.521Z,-2.70
2022-12-17T08:22:31.923Z,-2.70
2022-12-17T08:25:14.262Z,-2.70
2022-12-17T08:27:59.217Z,-2.60
2022-12-17T08:30:41.608Z,-2.70
2022-12-17T08:33:24.033Z,-2.60
2022-12-17T08:36:10.132Z,-2.70
2022-12-17T08:38:52.506Z,-2.60
2022-12-17T08:41:34.902Z,-2.60
2022-12-17T08:44:31.905Z,-2.60
2022-12-17T08:47:14.258Z,-2.70
2022-12-17T08:49:56.697Z,-2.70
2022-12-17T08:52:39.154Z,-2.70
2022-12-17T08:55:23.274Z,-2.80
2022-12-17T08:58:09.321Z,-2.70
2022-12-17T09:00:54.731Z,-2.60
2022-12-17T09:03:40.566Z,-2.60
2022-12-17T09:06:23.017Z,-2.70
2022-12-17T09:09:05.402Z,-2.70
2022-12-17T09:11:47.752Z,-2.70
2022-12-17T09:14:30.125Z,-2.70
2022-12-17T09:17:15.069Z,-2.70
2022-12-17T09:19:57.415Z,-2.60
2022-12-17T09:22:39.780Z,-2.60
2022-12-17T09:25:23.625Z,-2.60
2022-12-17T09:28:06.014Z,-2.60
2022-12-17T09:30:48.397Z,-2.60
2022-12-17T09:33:34.665Z,-2.50
2022-12-17T09:36:18.911Z,-2.60
2022-12-17T09:39:01.250Z,-2.50
2022-12-17T09:41:52.138Z,-2.60
2022-12-17T09:44:41.571Z,-2.50
2022-12-17T09:47:41.030Z,-2.50
2022-12-17T09:50:30.475Z,-2.50
2022-12-17T09:53:14.310Z,-2.50
2022-12-17T09:56:03.041Z,-2.50
2022-12-17T09:58:46.283Z,-2.60
2022-12-17T10:01:33.451Z,-2.60
2022-12-17T10:04:16.166Z,-2.60
2022-12-17T10:07:01.118Z,-2.60
2022-12-17T10:09:45.652Z,-2.60
2022-12-17T10:12:30.619Z,-2.60
2022-12-17T10:15:13.057Z,-2.60
2022-12-17T10:17:55.407Z,-2.60
2022-12-17T10:20:43.314Z,-2.70
2022-12-17T10:23:39.408Z,-2.70
2022-12-17T10:26:22.474Z,-2.60
2022-12-17T10:29:04.816Z,-2.60
2022-12-17T10:31:48.075Z,-2.60
2022-12-17T10:34:33.687Z,-2.50
2022-12-17T10:37:16.534Z,-2.50
2022-12-17T10:40:10.772Z,-2.40
2022-12-17T10:43:10.451Z,-2.40
2022-12-17T10:45:52.793Z,-2.40
2022-12-17T10:48:38.441Z,-2.50
2022-12-17T10:51:35.163Z,-2.50
2022-12-17T10:54:35.763Z,-2.50
2022-12-17T10:57:22.837Z,-2.40
2022-12-17T11:00:05.246Z,-2.40
2022-12-17T11:02:48.250Z,-2.40
2022-12-17T11:05:38.028Z,-2.40
2022-12-17T11:08:21.239Z,-2.50
2022-12-17T11:11:04.751Z,-2.40
2022-12-17T11:13:55.592Z,-2.40
2022-12-17T11:16:42.733Z,-2.50
2022-12-17T11:19:44.328Z,-2.40
2022-12-17T11:22:40.674Z,-2.40
2022-12-17T11:25:40.147Z,-2.40
2022-12-17T11:28:32.302Z,-2.40
2022-12-17T11:31:30.787Z,-2.40
2022-12-17T11:34:21.823Z,-2.40
2022-12-17T11:37:11.199Z,-2.40
2022-12-17T11:40:16.035Z,-2.40
2022-12-17T11:43:10.729Z,-2.40
2022-12-17T11:46:05.220Z,-2.40
2022-12-17T11:48:58.441Z,-2.40
2022-12-17T11:51:48.177Z,-2.30
2022-12-17T11:54:38.224Z,-2.30
2022-12-17T11:57:33.970Z,-2.30
2022-12-17T12:00:22.431Z,-2.30
2022-12-17T12:03:19.865Z,-2.20
2022-12-17T12:06:13.116Z,-2.30
2022-12-17T12:09:09.769Z,-2.30
2022-12-17T12:12:00.650Z,-2.20
2022-12-17T12:14:50.075Z,-2.20
2022-12-17T12:17:47.930Z,-2.20
2022-12-17T12:20:49.959Z,-2.20
2022-12-17T12:23:50.399Z,-2.20
2022-12-17T12:26:37.565Z,-2.20
2022-12-17T12:29:33.038Z,-2.20
2022-12-17T12:32:19.249Z,-2.10
2022-12-17T12:35:01.682Z,-2.10
2022-12-17T12:37:44.769Z,-2.20
2022-12-17T12:40:37.559Z,-2.20
2022-12-17T12:43:27.851Z,-2.20
2022-12-17T12:46:18.216Z,-2.20
2022-12-17T12:49:10.053Z,-2.20
2022-12-17T12:51:54.146Z,-2.20
2022-12-17T12:54:44.650Z,-2.20
2022-12-17T12:57:48.218Z,-2.20
2022-12-17T13:00:44.785Z,-2.20
2022-12-17T13:03:41.048Z,-2.20
2022-12-17T13:06:11.297Z,-2.10
2022-12-17T13:08:41.956Z,-2.10
2022-12-17T13:11:32.062Z,-2.20
2022-12-17T13:14:20.668Z,-2.20
2022-12-17T13:16:57.770Z,-2.20
2022-12-17T13:19:40.265Z,-2.10
2022-12-17T13:22:33.570Z,-2.10
2022-12-17T13:25:20.235Z,-2.10
2022-12-17T13:27:51.297Z,-2.10
2022-12-17T13:30:36.809Z,-2.10
2022-12-17T13:33:29.881Z,-2.10
2022-12-17T13:36:11.695Z,-2.20
2022-12-17T13:38:52.104Z,-2.10
2022-12-17T13:41:24.539Z,-2.10
2022-12-17T13:43:57.857Z,-2.10
2022-12-17T13:46:33.268Z,-2.00
2022-12-17T13:49:06.042Z,-2.00
2022-12-17T13:51:38.173Z,-2.00
2022-12-17T13:54:08.254Z,-2.00
2022-12-17T13:56:40.557Z,-2.00
2022-12-17T13:59:18.305Z,-2.00
2022-12-17T14:01:54.071Z,-2.10
2022-12-17T14:04:27.079Z,-2.10
2022-12-17T14:07:01.090Z,-2.10
2022-12-17T14:09:36.702Z,-2.10
2022-12-17T14:12:21.019Z,-2.10
2022-12-17T14:14:55.959Z,-2.00
2022-12-17T14:17:30.706Z,-2.00
2022-12-17T14:20:02.522Z,-2.00
2022-12-17T14:24:56.623Z,-2.00
2022-12-17T14:27:30.396Z,-2.00
2022-12-17T14:30:00.328Z,-2.00
2022-12-17T14:32:37.707Z,-2.10
2022-12-17T14:35:08.663Z,-2.10
2022-12-17T14:37:38.569Z,-2.10
2022-12-17T14:40:17.534Z,-2.10
2022-12-17T14:42:47.516Z,-2.10
2022-12-17T14:45:29.238Z,-2.10
2022-12-17T14:48:01.943Z,-2.10
2022-12-17T14:50:36.348Z,-2.10
2022-12-17T14:53:27.298Z,-2.10
2022-12-17T14:56:01.456Z,-2.10
2022-12-17T14:58:31.474Z,-2.00
2022-12-17T15:01:09.158Z,-2.00
2022-12-17T15:03:43.969Z,-2.00
2022-12-17T15:06:18.742Z,-2.00
2022-12-17T15:08:50.406Z,-2.00
2022-12-17T15:11:25.289Z,-2.00
2022-12-17T15:13:56.807Z,-2.10
2022-12-17T15:16:27.233Z,-2.10
2022-12-17T15:18:57.155Z,-2.10
2022-12-17T15:21:28.113Z,-2.10
2022-12-17T15:23:58.015Z,-2.20
2022-12-17T15:26:30.486Z,-2.10
2022-12-17T15:29:00.379Z,-2.10
2022-12-17T15:31:35.267Z,-2.20
2022-12-17T15:34:05.619Z,-2.20
2022-12-17T15:36:35.741Z,-2.20
2022-12-17T15:39:07.025Z,-2.30
2022-12-17T15:41:52.001Z,-2.30
2022-12-17T15:44:21.827Z,-2.30
2022-12-17T15:46:51.653Z,-2.30
2022-12-17T15:49:21.965Z,-2.30
2022-12-17T15:51:51.918Z,-2.30
2022-12-17T15:54:21.739Z,-2.40
2022-12-17T15:56:58.930Z,-2.40
2022-12-17T15:59:28.806Z,-2.30
2022-12-17T16:01:58.807Z,-2.40
2022-12-17T16:04:28.763Z,-2.40
2022-12-17T16:06:58.592Z,-2.40
2022-12-17T16:09:28.454Z,-2.50
2022-12-17T16:12:01.149Z,-2.50
2022-12-17T16:14:31.039Z,-2.60
2022-12-17T16:17:00.893Z,-2.50
2022-12-17T16:19:30.735Z,-2.60
2022-12-17T16:22:00.590Z,-2.50
2022-12-17T16:24:30.470Z,-2.60
2022-12-17T16:27:04.749Z,-2.70
2022-12-17T16:29:34.967Z,-2.80
2022-12-17T16:32:04.806Z,-2.80
2022-12-17T16:34:34.746Z,-2.70
2022-12-17T16:37:06.802Z,-2.70
2022-12-17T16:39:36.794Z,-2.70
2022-12-17T16:42:09.390Z,-2.60
2022-12-17T16:44:39.471Z,-2.70
2022-12-17T16:47:09.354Z,-2.70
2022-12-17T16:49:39.555Z,-2.70
2022-12-17T16:52:09.398Z,-2.70
2022-12-17T16:54:39.238Z,-2.70
2022-12-17T16:57:11.655Z,-2.70
2022-12-17T16:59:41.554Z,-2.60
2022-12-17T17:02:16.907Z,-2.70
2022-12-17T17:04:46.918Z,-2.70
2022-12-17T17:07:16.754Z,-2.70
2022-12-17T17:09:46.593Z,-2.80
2022-12-17T17:12:19.024Z,-2.80
2022-12-17T17:14:48.862Z,-2.80
2022-12-17T17:17:18.671Z,-2.80
2022-12-17T17:20:09.838Z,-2.80
2022-12-17T17:22:39.690Z,-2.80
2022-12-17T17:25:10.557Z,-2.70
2022-12-17T17:27:43.003Z,-2.80
2022-12-17T17:30:15.218Z,-2.80
2022-12-17T17:32:45.124Z,-2.90
2022-12-17T17:35:15.731Z,-2.90
2022-12-17T17:37:45.569Z,-2.80
2022-12-17T17:40:16.672Z,-2.80
2022-12-17T17:42:53.062Z,-2.90
2022-12-17T17:45:23.227Z,-2.90
2022-12-17T17:47:53.061Z,-2.90
2022-12-17T17:50:23.087Z,-2.90
2022-12-17T17:52:52.919Z,-2.90
2022-12-17T17:55:22.751Z,-2.90
2022-12-17T17:57:56.058Z,-2.80
2022-12-17T18:00:25.879Z,-2.90
2022-12-17T18:02:55.870Z,-3.00
2022-12-17T18:05:25.821Z,-3.00
2022-12-17T18:07:55.698Z,-3.00
2022-12-17T18:10:25.502Z,-3.00
2022-12-17T18:13:10.449Z,-3.10
2022-12-17T18:15:40.297Z,-3.10
2022-12-17T18:18:14.494Z,-3.20
2022-12-17T18:20:44.717Z,-3.10
2022-12-17T18:23:14.546Z,-3.20
2022-12-17T18:25:44.373Z,-3.20
2022-12-17T18:28:16.782Z,-3.20
2022-12-17T18:30:48.160Z,-3.20
2022-12-17T18:33:18.054Z,-3.20
2022-12-17T18:35:47.915Z,-3.20
2022-12-17T18:38:17.748Z,-3.30
2022-12-17T18:40:47.593Z,-3.20
2022-12-17T18:43:23.237Z,-3.20
2022-12-17T18:45:53.204Z,-3.20
2022-12-17T18:48:23.318Z,-3.30
2022-12-17T18:50:53.165Z,-3.40
2022-12-17T18:53:22.988Z,-3.40
2022-12-17T18:55:52.839Z,-3.40
2022-12-17T18:58:25.383Z,-3.50
2022-12-17T19:00:55.304Z,-3.50
2022-12-17T19:03:25.463Z,-3.50
2022-12-17T19:05:55.569Z,-3.50
2022-12-17T19:08:25.835Z,-3.50
2022-12-17T19:10:56.029Z,-3.60
2022-12-17T19:13:28.694Z,-3.60
2022-12-17T19:15:58.853Z,-3.60
2022-12-17T19:18:28.976Z,-3.60
2022-12-17T19:21:00.257Z,-3.60
2022-12-17T19:23:33.527Z,-3.60
2022-12-17T19:26:09.478Z,-3.70
2022-12-17T19:28:42.571Z,-3.70
2022-12-17T19:31:12.990Z,-3.70
2022-12-17T19:33:43.284Z,-3.70
2022-12-17T19:36:16.374Z,-3.80
2022-12-17T19:38:46.867Z,-3.80
2022-12-17T19:41:20.083Z,-3.90
2022-12-17T19:43:58.920Z,-3.90
2022-12-17T19:46:29.789Z,-3.90
2022-12-17T19:48:59.948Z,-3.80
2022-12-17T19:51:32.174Z,-3.80
2022-12-17T19:54:08.440Z,-3.90
2022-12-17T19:56:39.227Z,-3.80
2022-12-17T19:59:13.665Z,-3.90
2022-12-17T20:01:46.528Z,-3.90
2022-12-17T20:04:18.421Z,-4.00
2022-12-17T20:06:49.062Z,-4.10
2022-12-17T20:09:18.958Z,-4.10
2022-12-17T20:11:48.815Z,-4.10
2022-12-17T20:14:23.718Z,-4.10
2022-12-17T20:16:57.082Z,-4.20
2022-12-17T20:19:31.053Z,-4.10
2022-12-17T20:22:02.708Z,-4.10
2022-12-17T20:24:32.914Z,-4.20
2022-12-17T20:27:04.029Z,-4.20
2022-12-17T20:29:36.563Z,-4.10
2022-12-17T20:32:06.959Z,-4.10
2022-12-17T20:34:37.161Z,-4.10
2022-12-17T20:37:07.017Z,-4.10
2022-12-17T20:39:36.990Z,-4.10
2022-12-17T20:42:07.442Z,-4.20
2022-12-17T20:44:39.957Z,-4.30
2022-12-17T20:47:09.806Z,-4.30
2022-12-17T20:49:39.718Z,-4.20
2022-12-17T20:52:09.572Z,-4.20
2022-12-17T20:54:39.546Z,-4.20
2022-12-17T20:57:09.407Z,-4.20
2022-12-17T20:59:41.821Z,-4.30
2022-12-17T21:02:13.165Z,-4.30
2022-12-17T21:04:43.067Z,-4.30
2022-12-17T21:07:12.923Z,-4.30
2022-12-17T21:09:43.176Z,-4.30
2022-12-17T21:12:13.706Z,-4.40
2022-12-17T21:14:46.159Z,-4.30
2022-12-17T21:17:16.299Z,-4.30
2022-12-17T21:19:46.214Z,-4.30
2022-12-17T21:22:16.145Z,-4.20
2022-12-17T21:24:45.998Z,-4.20
2022-12-17T21:27:17.316Z,-4.20
2022-12-17T21:29:50.022Z,-4.20
2022-12-17T21:32:19.884Z,-4.30
2022-12-17T21:34:49.992Z,-4.30
2022-12-17T21:37:19.918Z,-4.20
2022-12-17T21:39:49.783Z,-4.30
2022-12-17T21:42:32.587Z,-4.30
2022-12-17T21:45:05.034Z,-4.40
2022-12-17T21:47:35.050Z,-4.30
2022-12-17T21:50:04.913Z,-4.40
2022-12-17T21:52:34.761Z,-4.30
2022-12-17T21:55:04.628Z,-4.50
2022-12-17T21:57:34.464Z,-4.60
2022-12-17T22:00:08.282Z,-4.60
2022-12-17T22:02:38.241Z,-4.60
2022-12-17T22:05:10.726Z,-4.60
2022-12-17T22:07:48.263Z,-4.60
2022-12-17T22:10:36.209Z,-4.60
2022-12-17T22:13:23.773Z,-4.60
2022-12-17T22:15:56.428Z,-4.60
2022-12-17T22:18:26.341Z,-4.60
2022-12-17T22:21:03.700Z,-4.60
2022-12-17T22:23:33.617Z,-4.70
2022-12-17T22:26:03.916Z,-4.70
2022-12-17T22:28:33.757Z,-4.70
2022-12-17T22:31:22.487Z,-4.80
2022-12-17T22:34:57.452Z,-4.70
2022-12-17T22:38:33.224Z,-4.70
2022-12-17T22:43:32.733Z,-4.70
2022-12-17T22:44:37.200Z,-4.60
2022-12-17T22:45:26.181Z,-4.60
2022-12-17T22:47:58.643Z,-4.60
2022-12-17T22:50:30.185Z,-4.60
2022-12-17T22:53:04.502Z,-4.70
2022-12-17T22:55:37.190Z,-4.70
2022-12-17T22:58:07.488Z,-4.70
2022-12-17T23:00:39.035Z,-4.80
2022-12-17T23:03:11.661Z,-4.80
2022-12-17T23:05:41.923Z,-4.80
2022-12-17T23:08:11.760Z,-4.80
2022-12-17T23:10:41.693Z,-4.80
2022-12-17T23:13:11.578Z,-4.80
2022-12-17T23:15:41.483Z,-4.70
2022-12-17T23:18:15.551Z,-4.70
2022-12-17T23:20:45.383Z,-4.70
2022-12-17T23:23:15.201Z,-4.70
2022-12-17T23:25:45.673Z,-4.70
2022-12-17T23:28:15.645Z,-4.60
2022-12-17T23:30:45.498Z,-4.60
2022-12-17T23:33:17.947Z,-4.70
2022-12-17T23:35:47.781Z,-4.80
2022-12-17T23:38:17.746Z,-4.90
2022-12-17T23:40:47.587Z,-4.80
2022-12-17T23:43:18.093Z,-4.90
2022-12-17T23:45:47.987Z,-4.90
2022-12-17T23:48:20.424Z,-4.80
2022-12-17T23:50:50.273Z,-5.00
2022-12-17T23:53:20.123Z,-5.00
2022-12-17T23:55:51.063Z,-4.90
2022-12-17T23:58:21.926Z,-4.90
